sensor_id;sensor_type;location;lat;lon;timestamp;temperature;humidity
18321;DHT22;54904;54.350;18.664;2023-07-09T00:01:13;21.10;92.30
18321;DHT22;54904;54.350;18.664;2023-07-09T00:03:43;21.10;92.30
18321;DHT22;54904;54.350;18.664;2023-07-09T00:06:10;21.10;92.30
18321;DHT22;54904;54.350;18.664;2023-07-09T00:08:43;21.10;92.30
18321;DHT22;54904;54.350;18.664;2023-07-09T00:11:12;21.10;92.60
18321;DHT22;54904;54.350;18.664;2023-07-09T00:13:39;21.10;92.30
18321;DHT22;54904;54.350;18.664;2023-07-09T00:16:19;21.10;92.30
18321;DHT22;54904;54.350;18.664;2023-07-09T00:18:46;21.00;92.30
18321;DHT22;54904;54.350;18.664;2023-07-09T00:21:15;21.00;92.30
18321;DHT22;54904;54.350;18.664;2023-07-09T00:23:43;21.00;92.30
18321;DHT22;54904;54.350;18.664;2023-07-09T00:26:12;21.00;92.30
18321;DHT22;54904;54.350;18.664;2023-07-09T00:28:40;21.00;92.30
18321;DHT22;54904;54.350;18.664;2023-07-09T00:31:12;20.90;92.20
18321;DHT22;54904;54.350;18.664;2023-07-09T00:33:40;20.90;92.20
18321;DHT22;54904;54.350;18.664;2023-07-09T00:36:13;20.90;92.20
18321;DHT22;54904;54.350;18.664;2023-07-09T00:38:42;20.90;92.20
18321;DHT22;54904;54.350;18.664;2023-07-09T00:41:17;20.90;92.20
18321;DHT22;54904;54.350;18.664;2023-07-09T00:43:45;20.90;92.20
18321;DHT22;54904;54.350;18.664;2023-07-09T00:49:32;20.80;92.20
18321;DHT22;54904;54.350;18.664;2023-07-09T00:52:02;20.80;92.20
18321;DHT22;54904;54.350;18.664;2023-07-09T00:54:34;20.80;92.20
18321;DHT22;54904;54.350;18.664;2023-07-09T00:57:06;20.80;92.20
18321;DHT22;54904;54.350;18.664;2023-07-09T00:59:34;20.80;92.20
18321;DHT22;54904;54.350;18.664;2023-07-09T01:02:04;20.80;92.20
18321;DHT22;54904;54.350;18.664;2023-07-09T01:04:32;20.80;92.20
18321;DHT22;54904;54.350;18.664;2023-07-09T01:07:00;20.80;92.20
18321;DHT22;54904;54.350;18.664;2023-07-09T01:09:27;20.80;92.20
18321;DHT22;54904;54.350;18.664;2023-07-09T01:11:55;20.80;92.30
18321;DHT22;54904;54.350;18.664;2023-07-09T01:14:27;20.80;92.30
18321;DHT22;54904;54.350;18.664;2023-07-09T01:16:58;20.70;92.30
18321;DHT22;54904;54.350;18.664;2023-07-09T01:19:30;20.70;92.40
18321;DHT22;54904;54.350;18.664;2023-07-09T01:22:00;20.70;92.50
18321;DHT22;54904;54.350;18.664;2023-07-09T01:24:50;20.70;92.60
18321;DHT22;54904;54.350;18.664;2023-07-09T01:27:20;20.70;92.60
18321;DHT22;54904;54.350;18.664;2023-07-09T01:29:48;20.60;92.70
18321;DHT22;54904;54.350;18.664;2023-07-09T01:32:16;20.60;92.70
18321;DHT22;54904;54.350;18.664;2023-07-09T01:34:45;20.70;92.80
18321;DHT22;54904;54.350;18.664;2023-07-09T01:37:15;20.70;92.80
18321;DHT22;54904;54.350;18.664;2023-07-09T01:39:42;20.80;92.80
18321;DHT22;54904;54.350;18.664;2023-07-09T01:42:09;20.70;92.80
18321;DHT22;54904;54.350;18.664;2023-07-09T01:44:37;20.70;92.80
18321;DHT22;54904;54.350;18.664;2023-07-09T01:47:06;20.60;92.90
18321;DHT22;54904;54.350;18.664;2023-07-09T01:49:33;20.60;93.00
18321;DHT22;54904;54.350;18.664;2023-07-09T01:52:01;20.60;93.10
18321;DHT22;54904;54.350;18.664;2023-07-09T01:54:31;20.50;93.10
18321;DHT22;54904;54.350;18.664;2023-07-09T01:57:14;20.50;93.20
18321;DHT22;54904;54.350;18.664;2023-07-09T01:59:45;20.40;93.30
18321;DHT22;54904;54.350;18.664;2023-07-09T02:02:12;20.40;93.40
18321;DHT22;54904;54.350;18.664;2023-07-09T02:04:47;20.40;93.50
18321;DHT22;54904;54.350;18.664;2023-07-09T02:07:15;20.40;93.60
18321;DHT22;54904;54.350;18.664;2023-07-09T02:09:44;20.30;93.70
18321;DHT22;54904;54.350;18.664;2023-07-09T02:12:12;20.30;93.70
18321;DHT22;54904;54.350;18.664;2023-07-09T02:14:41;20.30;93.80
18321;DHT22;54904;54.350;18.664;2023-07-09T02:17:09;20.30;93.80
18321;DHT22;54904;54.350;18.664;2023-07-09T02:19:36;20.20;93.80
18321;DHT22;54904;54.350;18.664;2023-07-09T02:22:05;20.20;93.90
18321;DHT22;54904;54.350;18.664;2023-07-09T02:24:32;20.20;94.00
18321;DHT22;54904;54.350;18.664;2023-07-09T02:27:02;20.20;94.10
18321;DHT22;54904;54.350;18.664;2023-07-09T02:29:31;20.20;94.20
18321;DHT22;54904;54.350;18.664;2023-07-09T02:31:59;20.20;94.20
18321;DHT22;54904;54.350;18.664;2023-07-09T02:34:28;20.20;94.20
18321;DHT22;54904;54.350;18.664;2023-07-09T02:36:56;20.20;94.20
18321;DHT22;54904;54.350;18.664;2023-07-09T02:39:24;20.30;94.30
18321;DHT22;54904;54.350;18.664;2023-07-09T02:41:52;20.30;94.40
18321;DHT22;54904;54.350;18.664;2023-07-09T02:44:20;20.30;94.40
18321;DHT22;54904;54.350;18.664;2023-07-09T02:46:47;20.30;94.40
18321;DHT22;54904;54.350;18.664;2023-07-09T02:49:15;20.30;94.50
18321;DHT22;54904;54.350;18.664;2023-07-09T02:51:43;20.30;94.50
18321;DHT22;54904;54.350;18.664;2023-07-09T02:54:10;20.30;94.60
18321;DHT22;54904;54.350;18.664;2023-07-09T02:56:37;20.30;94.70
18321;DHT22;54904;54.350;18.664;2023-07-09T02:59:05;20.30;94.70
18321;DHT22;54904;54.350;18.664;2023-07-09T03:01:33;20.30;94.80
18321;DHT22;54904;54.350;18.664;2023-07-09T03:04:02;20.30;94.90
18321;DHT22;54904;54.350;18.664;2023-07-09T03:06:31;20.30;94.90
18321;DHT22;54904;54.350;18.664;2023-07-09T03:09:00;20.30;95.00
18321;DHT22;54904;54.350;18.664;2023-07-09T03:11:29;20.20;95.10
18321;DHT22;54904;54.350;18.664;2023-07-09T03:13:57;20.20;95.20
18321;DHT22;54904;54.350;18.664;2023-07-09T03:16:25;20.20;95.30
18321;DHT22;54904;54.350;18.664;2023-07-09T03:18:54;20.10;95.40
18321;DHT22;54904;54.350;18.664;2023-07-09T03:21:22;20.20;95.60
18321;DHT22;54904;54.350;18.664;2023-07-09T03:23:49;20.20;96.00
18321;DHT22;54904;54.350;18.664;2023-07-09T03:26:17;20.20;95.80
18321;DHT22;54904;54.350;18.664;2023-07-09T03:28:44;20.20;95.80
18321;DHT22;54904;54.350;18.664;2023-07-09T03:31:12;20.20;95.90
18321;DHT22;54904;54.350;18.664;2023-07-09T03:33:39;20.20;96.00
18321;DHT22;54904;54.350;18.664;2023-07-09T03:36:07;20.30;96.10
18321;DHT22;54904;54.350;18.664;2023-07-09T03:38:35;20.20;96.10
18321;DHT22;54904;54.350;18.664;2023-07-09T03:41:02;20.20;96.20
18321;DHT22;54904;54.350;18.664;2023-07-09T03:43:29;20.20;96.30
18321;DHT22;54904;54.350;18.664;2023-07-09T03:45:56;20.30;96.40
18321;DHT22;54904;54.350;18.664;2023-07-09T03:48:23;20.20;96.40
18321;DHT22;54904;54.350;18.664;2023-07-09T03:50:50;20.30;96.60
18321;DHT22;54904;54.350;18.664;2023-07-09T03:53:19;20.20;96.60
18321;DHT22;54904;54.350;18.664;2023-07-09T03:55:50;20.20;96.70
18321;DHT22;54904;54.350;18.664;2023-07-09T03:58:18;20.20;96.80
18321;DHT22;54904;54.350;18.664;2023-07-09T04:00:45;20.20;96.80
18321;DHT22;54904;54.350;18.664;2023-07-09T04:03:12;20.30;97.00
18321;DHT22;54904;54.350;18.664;2023-07-09T04:05:39;20.30;97.00
18321;DHT22;54904;54.350;18.664;2023-07-09T04:08:06;20.30;97.10
18321;DHT22;54904;54.350;18.664;2023-07-09T04:10:34;20.20;97.00
18321;DHT22;54904;54.350;18.664;2023-07-09T04:13:01;20.20;97.10
18321;DHT22;54904;54.350;18.664;2023-07-09T04:15:29;20.20;97.20
18321;DHT22;54904;54.350;18.664;2023-07-09T04:17:56;20.20;97.20
18321;DHT22;54904;54.350;18.664;2023-07-09T04:20:23;20.20;97.30
18321;DHT22;54904;54.350;18.664;2023-07-09T04:22:50;20.20;97.20
18321;DHT22;54904;54.350;18.664;2023-07-09T04:25:17;20.20;97.30
18321;DHT22;54904;54.350;18.664;2023-07-09T04:27:45;20.30;97.40
18321;DHT22;54904;54.350;18.664;2023-07-09T04:30:14;20.30;97.40
18321;DHT22;54904;54.350;18.664;2023-07-09T04:32:42;20.40;97.40
18321;DHT22;54904;54.350;18.664;2023-07-09T04:35:10;20.40;97.40
18321;DHT22;54904;54.350;18.664;2023-07-09T04:37:38;20.40;97.40
18321;DHT22;54904;54.350;18.664;2023-07-09T04:40:07;20.40;97.40
18321;DHT22;54904;54.350;18.664;2023-07-09T04:42:37;20.40;97.40
18321;DHT22;54904;54.350;18.664;2023-07-09T04:45:08;20.50;97.50
18321;DHT22;54904;54.350;18.664;2023-07-09T04:47:36;20.50;97.60
18321;DHT22;54904;54.350;18.664;2023-07-09T04:50:05;20.50;98.00
18321;DHT22;54904;54.350;18.664;2023-07-09T04:52:33;20.60;97.80
18321;DHT22;54904;54.350;18.664;2023-07-09T04:55:00;20.60;97.90
18321;DHT22;54904;54.350;18.664;2023-07-09T04:57:28;20.70;97.90
18321;DHT22;54904;54.350;18.664;2023-07-09T04:59:55;20.70;97.90
18321;DHT22;54904;54.350;18.664;2023-07-09T05:02:24;20.80;97.90
18321;DHT22;54904;54.350;18.664;2023-07-09T05:04:51;20.80;98.00
18321;DHT22;54904;54.350;18.664;2023-07-09T05:07:18;20.80;98.10
18321;DHT22;54904;54.350;18.664;2023-07-09T05:09:45;20.80;98.10
18321;DHT22;54904;54.350;18.664;2023-07-09T05:12:13;20.80;98.20
18321;DHT22;54904;54.350;18.664;2023-07-09T05:14:40;20.80;98.30
18321;DHT22;54904;54.350;18.664;2023-07-09T05:17:07;20.80;98.30
18321;DHT22;54904;54.350;18.664;2023-07-09T05:19:36;20.80;98.30
18321;DHT22;54904;54.350;18.664;2023-07-09T05:22:04;20.80;98.40
18321;DHT22;54904;54.350;18.664;2023-07-09T05:24:31;20.90;98.50
18321;DHT22;54904;54.350;18.664;2023-07-09T05:26:58;20.90;98.50
18321;DHT22;54904;54.350;18.664;2023-07-09T05:29:25;20.90;98.60
18321;DHT22;54904;54.350;18.664;2023-07-09T05:31:52;20.90;98.60
18321;DHT22;54904;54.350;18.664;2023-07-09T05:34:19;20.90;98.60
18321;DHT22;54904;54.350;18.664;2023-07-09T05:36:48;20.90;98.70
18321;DHT22;54904;54.350;18.664;2023-07-09T05:39:15;20.90;98.70
18321;DHT22;54904;54.350;18.664;2023-07-09T05:41:43;20.90;98.80
18321;DHT22;54904;54.350;18.664;2023-07-09T05:44:10;20.90;98.80
18321;DHT22;54904;54.350;18.664;2023-07-09T05:46:37;21.00;98.90
18321;DHT22;54904;54.350;18.664;2023-07-09T05:49:05;21.00;98.90
18321;DHT22;54904;54.350;18.664;2023-07-09T05:51:32;21.00;98.90
18321;DHT22;54904;54.350;18.664;2023-07-09T05:54:01;21.00;98.90
18321;DHT22;54904;54.350;18.664;2023-07-09T05:56:28;21.10;99.00
18321;DHT22;54904;54.350;18.664;2023-07-09T05:58:55;21.10;99.00
18321;DHT22;54904;54.350;18.664;2023-07-09T06:01:23;21.10;99.00
18321;DHT22;54904;54.350;18.664;2023-07-09T06:03:50;21.20;99.00
18321;DHT22;54904;54.350;18.664;2023-07-09T06:06:19;21.20;99.00
18321;DHT22;54904;54.350;18.664;2023-07-09T06:08:46;21.20;99.00
18321;DHT22;54904;54.350;18.664;2023-07-09T06:11:15;21.30;98.90
18321;DHT22;54904;54.350;18.664;2023-07-09T06:13:43;21.30;98.90
18321;DHT22;54904;54.350;18.664;2023-07-09T06:16:10;21.40;98.90
18321;DHT22;54904;54.350;18.664;2023-07-09T06:18:37;21.40;98.80
18321;DHT22;54904;54.350;18.664;2023-07-09T06:21:04;21.50;99.00
18321;DHT22;54904;54.350;18.664;2023-07-09T06:23:33;21.50;98.40
18321;DHT22;54904;54.350;18.664;2023-07-09T06:26:00;21.50;98.10
18321;DHT22;54904;54.350;18.664;2023-07-09T06:28:28;21.50;97.60
18321;DHT22;54904;54.350;18.664;2023-07-09T06:30:56;21.50;97.20
18321;DHT22;54904;54.350;18.664;2023-07-09T06:33:24;21.60;96.80
18321;DHT22;54904;54.350;18.664;2023-07-09T06:35:54;21.60;96.50
18321;DHT22;54904;54.350;18.664;2023-07-09T06:38:23;21.70;96.30
18321;DHT22;54904;54.350;18.664;2023-07-09T06:40:51;21.80;96.20
18321;DHT22;54904;54.350;18.664;2023-07-09T06:43:18;21.80;96.10
18321;DHT22;54904;54.350;18.664;2023-07-09T06:45:51;21.80;95.90
18321;DHT22;54904;54.350;18.664;2023-07-09T06:48:18;21.90;95.80
18321;DHT22;54904;54.350;18.664;2023-07-09T06:50:45;22.00;95.70
18321;DHT22;54904;54.350;18.664;2023-07-09T06:53:12;22.00;95.50
18321;DHT22;54904;54.350;18.664;2023-07-09T06:55:40;22.10;95.30
18321;DHT22;54904;54.350;18.664;2023-07-09T06:58:07;22.10;95.10
18321;DHT22;54904;54.350;18.664;2023-07-09T07:00:35;22.20;94.90
18321;DHT22;54904;54.350;18.664;2023-07-09T07:03:04;22.20;94.80
18321;DHT22;54904;54.350;18.664;2023-07-09T07:05:32;22.30;94.50
18321;DHT22;54904;54.350;18.664;2023-07-09T07:07:59;22.40;93.90
18321;DHT22;54904;54.350;18.664;2023-07-09T07:10:26;22.40;93.50
18321;DHT22;54904;54.350;18.664;2023-07-09T07:12:54;22.50;93.40
18321;DHT22;54904;54.350;18.664;2023-07-09T07:15:21;22.50;93.40
18321;DHT22;54904;54.350;18.664;2023-07-09T07:17:48;22.60;93.40
18321;DHT22;54904;54.350;18.664;2023-07-09T07:20:18;22.60;93.30
18321;DHT22;54904;54.350;18.664;2023-07-09T07:22:45;22.60;93.20
18321;DHT22;54904;54.350;18.664;2023-07-09T07:25:13;22.70;93.50
18321;DHT22;54904;54.350;18.664;2023-07-09T07:27:40;22.80;93.10
18321;DHT22;54904;54.350;18.664;2023-07-09T07:30:08;22.90;93.00
18321;DHT22;54904;54.350;18.664;2023-07-09T07:32:37;22.90;92.60
18321;DHT22;54904;54.350;18.664;2023-07-09T07:35:05;23.00;91.90
18321;DHT22;54904;54.350;18.664;2023-07-09T07:37:33;23.00;91.50
18321;DHT22;54904;54.350;18.664;2023-07-09T07:40:00;23.10;91.30
18321;DHT22;54904;54.350;18.664;2023-07-09T07:42:28;23.10;91.00
18321;DHT22;54904;54.350;18.664;2023-07-09T07:44:55;23.20;91.00
18321;DHT22;54904;54.350;18.664;2023-07-09T07:47:22;23.20;91.00
18321;DHT22;54904;54.350;18.664;2023-07-09T07:49:49;23.30;90.90
18321;DHT22;54904;54.350;18.664;2023-07-09T07:52:16;23.30;90.80
18321;DHT22;54904;54.350;18.664;2023-07-09T07:54:44;23.30;90.50
18321;DHT22;54904;54.350;18.664;2023-07-09T07:57:12;23.40;90.20
18321;DHT22;54904;54.350;18.664;2023-07-09T07:59:39;23.40;90.10
18321;DHT22;54904;54.350;18.664;2023-07-09T08:02:11;23.60;90.00
18321;DHT22;54904;54.350;18.664;2023-07-09T08:04:38;23.60;89.30
18321;DHT22;54904;54.350;18.664;2023-07-09T08:07:06;23.70;89.30
18321;DHT22;54904;54.350;18.664;2023-07-09T08:09:34;23.80;89.30
18321;DHT22;54904;54.350;18.664;2023-07-09T08:12:03;23.80;89.20
18321;DHT22;54904;54.350;18.664;2023-07-09T08:14:35;23.90;89.00
18321;DHT22;54904;54.350;18.664;2023-07-09T08:17:02;24.00;87.50
18321;DHT22;54904;54.350;18.664;2023-07-09T08:19:30;24.10;86.90
18321;DHT22;54904;54.350;18.664;2023-07-09T08:21:57;24.20;86.30
18321;DHT22;54904;54.350;18.664;2023-07-09T08:24:24;24.20;84.80
18321;DHT22;54904;54.350;18.664;2023-07-09T08:26:51;24.30;84.80
18321;DHT22;54904;54.350;18.664;2023-07-09T08:29:20;24.30;85.40
18321;DHT22;54904;54.350;18.664;2023-07-09T08:31:47;24.40;84.60
18321;DHT22;54904;54.350;18.664;2023-07-09T08:34:14;24.50;84.30
18321;DHT22;54904;54.350;18.664;2023-07-09T08:36:41;24.50;83.00
18321;DHT22;54904;54.350;18.664;2023-07-09T08:39:10;24.70;82.10
18321;DHT22;54904;54.350;18.664;2023-07-09T08:41:42;24.70;81.50
18321;DHT22;54904;54.350;18.664;2023-07-09T08:44:24;24.70;81.20
18321;DHT22;54904;54.350;18.664;2023-07-09T08:47:02;24.80;80.80
18321;DHT22;54904;54.350;18.664;2023-07-09T08:49:37;24.90;79.40
18321;DHT22;54904;54.350;18.664;2023-07-09T08:52:12;24.90;79.40
18321;DHT22;54904;54.350;18.664;2023-07-09T08:54:42;25.00;79.40
18321;DHT22;54904;54.350;18.664;2023-07-09T08:57:19;25.10;79.20
18321;DHT22;54904;54.350;18.664;2023-07-09T08:59:50;25.10;79.10
18321;DHT22;54904;54.350;18.664;2023-07-09T09:02:28;25.20;78.30
18321;DHT22;54904;54.350;18.664;2023-07-09T09:04:56;25.30;78.70
18321;DHT22;54904;54.350;18.664;2023-07-09T09:07:32;25.40;78.90
18321;DHT22;54904;54.350;18.664;2023-07-09T09:10:03;25.40;79.00
18321;DHT22;54904;54.350;18.664;2023-07-09T09:12:36;25.50;79.20
18321;DHT22;54904;54.350;18.664;2023-07-09T09:15:13;25.60;79.50
18321;DHT22;54904;54.350;18.664;2023-07-09T09:17:41;25.70;79.00
18321;DHT22;54904;54.350;18.664;2023-07-09T09:20:11;25.80;78.90
18321;DHT22;54904;54.350;18.664;2023-07-09T09:22:43;25.80;78.40
18321;DHT22;54904;54.350;18.664;2023-07-09T09:25:18;25.90;78.70
18321;DHT22;54904;54.350;18.664;2023-07-09T09:27:47;26.00;78.70
18321;DHT22;54904;54.350;18.664;2023-07-09T09:30:18;26.10;78.60
18321;DHT22;54904;54.350;18.664;2023-07-09T09:32:48;26.10;78.20
18321;DHT22;54904;54.350;18.664;2023-07-09T09:35:17;26.10;77.70
18321;DHT22;54904;54.350;18.664;2023-07-09T09:37:50;26.20;77.40
18321;DHT22;54904;54.350;18.664;2023-07-09T09:40:19;26.20;75.80
18321;DHT22;54904;54.350;18.664;2023-07-09T09:42:48;26.20;74.70
18321;DHT22;54904;54.350;18.664;2023-07-09T09:45:18;26.20;74.70
18321;DHT22;54904;54.350;18.664;2023-07-09T09:47:47;26.30;74.10
18321;DHT22;54904;54.350;18.664;2023-07-09T09:50:15;26.30;73.40
18321;DHT22;54904;54.350;18.664;2023-07-09T09:52:43;26.40;73.50
18321;DHT22;54904;54.350;18.664;2023-07-09T09:55:12;26.40;72.60
18321;DHT22;54904;54.350;18.664;2023-07-09T09:57:47;26.50;71.80
18321;DHT22;54904;54.350;18.664;2023-07-09T10:00:17;26.50;70.30
18321;DHT22;54904;54.350;18.664;2023-07-09T10:02:45;26.50;70.20
18321;DHT22;54904;54.350;18.664;2023-07-09T10:05:13;26.50;70.90
18321;DHT22;54904;54.350;18.664;2023-07-09T10:07:45;26.60;71.40
18321;DHT22;54904;54.350;18.664;2023-07-09T10:10:18;26.70;71.60
18321;DHT22;54904;54.350;18.664;2023-07-09T10:12:50;26.80;71.70
18321;DHT22;54904;54.350;18.664;2023-07-09T10:15:29;26.90;71.80
18321;DHT22;54904;54.350;18.664;2023-07-09T10:18:01;27.00;71.90
18321;DHT22;54904;54.350;18.664;2023-07-09T10:20:35;27.10;71.90
18321;DHT22;54904;54.350;18.664;2023-07-09T10:23:13;27.20;71.80
18321;DHT22;54904;54.350;18.664;2023-07-09T10:25:50;27.20;70.50
18321;DHT22;54904;54.350;18.664;2023-07-09T10:28:34;27.20;70.30
18321;DHT22;54904;54.350;18.664;2023-07-09T10:31:09;27.30;70.30
18321;DHT22;54904;54.350;18.664;2023-07-09T10:33:52;27.40;70.30
18321;DHT22;54904;54.350;18.664;2023-07-09T10:36:39;27.40;70.20
18321;DHT22;54904;54.350;18.664;2023-07-09T10:39:14;27.50;70.10
18321;DHT22;54904;54.350;18.664;2023-07-09T10:41:43;27.60;69.90
18321;DHT22;54904;54.350;18.664;2023-07-09T10:44:14;27.60;69.80
18321;DHT22;54904;54.350;18.664;2023-07-09T10:46:47;27.70;69.80
18321;DHT22;54904;54.350;18.664;2023-07-09T10:49:17;27.70;68.60
18321;DHT22;54904;54.350;18.664;2023-07-09T10:51:48;27.70;66.60
18321;DHT22;54904;54.350;18.664;2023-07-09T10:54:23;27.70;65.40
18321;DHT22;54904;54.350;18.664;2023-07-09T10:56:59;27.70;64.80
18321;DHT22;54904;54.350;18.664;2023-07-09T10:59:31;27.70;65.40
18321;DHT22;54904;54.350;18.664;2023-07-09T11:02:13;27.70;64.50
18321;DHT22;54904;54.350;18.664;2023-07-09T11:04:47;27.70;64.60
18321;DHT22;54904;54.350;18.664;2023-07-09T11:07:19;27.70;64.80
18321;DHT22;54904;54.350;18.664;2023-07-09T11:09:48;27.70;64.60
18321;DHT22;54904;54.350;18.664;2023-07-09T11:12:27;27.70;64.70
18321;DHT22;54904;54.350;18.664;2023-07-09T11:14:58;27.70;64.70
18321;DHT22;54904;54.350;18.664;2023-07-09T11:17:29;27.80;64.70
18321;DHT22;54904;54.350;18.664;2023-07-09T11:19:58;27.80;63.40
18321;DHT22;54904;54.350;18.664;2023-07-09T11:22:27;27.80;63.40
18321;DHT22;54904;54.350;18.664;2023-07-09T11:25:07;27.80;63.70
18321;DHT22;54904;54.350;18.664;2023-07-09T11:27:46;27.80;62.60
18321;DHT22;54904;54.350;18.664;2023-07-09T11:30:21;27.80;62.70
18321;DHT22;54904;54.350;18.664;2023-07-09T11:32:56;27.80;63.00
18321;DHT22;54904;54.350;18.664;2023-07-09T11:35:25;27.90;63.20
18321;DHT22;54904;54.350;18.664;2023-07-09T11:37:53;27.90;63.30
18321;DHT22;54904;54.350;18.664;2023-07-09T11:40:22;28.00;63.50
18321;DHT22;54904;54.350;18.664;2023-07-09T11:42:53;28.00;63.00
18321;DHT22;54904;54.350;18.664;2023-07-09T11:45:24;28.00;63.10
18321;DHT22;54904;54.350;18.664;2023-07-09T11:47:59;28.10;62.90
18321;DHT22;54904;54.350;18.664;2023-07-09T11:50:32;28.10;62.70
18321;DHT22;54904;54.350;18.664;2023-07-09T11:53:05;28.10;62.60
18321;DHT22;54904;54.350;18.664;2023-07-09T11:55:43;28.10;62.80
18321;DHT22;54904;54.350;18.664;2023-07-09T11:58:12;28.10;62.90
18321;DHT22;54904;54.350;18.664;2023-07-09T12:00:41;28.10;63.00
18321;DHT22;54904;54.350;18.664;2023-07-09T12:03:15;28.10;62.70
18321;DHT22;54904;54.350;18.664;2023-07-09T12:05:48;28.10;62.90
18321;DHT22;54904;54.350;18.664;2023-07-09T12:08:16;28.20;62.80
18321;DHT22;54904;54.350;18.664;2023-07-09T12:10:44;28.20;62.70
18321;DHT22;54904;54.350;18.664;2023-07-09T12:13:12;28.30;62.60
18321;DHT22;54904;54.350;18.664;2023-07-09T12:15:40;28.20;62.30
18321;DHT22;54904;54.350;18.664;2023-07-09T12:18:13;28.30;62.00
18321;DHT22;54904;54.350;18.664;2023-07-09T12:20:41;28.30;62.00
18321;DHT22;54904;54.350;18.664;2023-07-09T12:23:18;28.30;61.80
18321;DHT22;54904;54.350;18.664;2023-07-09T12:25:48;28.30;61.60
18321;DHT22;54904;54.350;18.664;2023-07-09T12:28:16;28.40;61.30
18321;DHT22;54904;54.350;18.664;2023-07-09T12:30:45;28.40;61.30
18321;DHT22;54904;54.350;18.664;2023-07-09T12:33:16;28.40;60.80
18321;DHT22;54904;54.350;18.664;2023-07-09T12:35:44;28.40;60.20
18321;DHT22;54904;54.350;18.664;2023-07-09T12:38:18;28.40;60.30
18321;DHT22;54904;54.350;18.664;2023-07-09T12:40:47;28.40;60.40
18321;DHT22;54904;54.350;18.664;2023-07-09T12:43:15;28.50;60.60
18321;DHT22;54904;54.350;18.664;2023-07-09T12:45:44;28.50;60.50
18321;DHT22;54904;54.350;18.664;2023-07-09T12:48:12;28.50;60.60
18321;DHT22;54904;54.350;18.664;2023-07-09T12:50:41;28.60;60.70
18321;DHT22;54904;54.350;18.664;2023-07-09T12:53:14;28.60;60.90
18321;DHT22;54904;54.350;18.664;2023-07-09T12:55:44;28.70;60.70
18321;DHT22;54904;54.350;18.664;2023-07-09T12:58:16;28.80;60.70
18321;DHT22;54904;54.350;18.664;2023-07-09T13:00:47;28.80;60.30
18321;DHT22;54904;54.350;18.664;2023-07-09T13:03:18;28.90;60.30
18321;DHT22;54904;54.350;18.664;2023-07-09T13:05:55;28.90;60.40
18321;DHT22;54904;54.350;18.664;2023-07-09T13:08:24;28.90;60.30
18321;DHT22;54904;54.350;18.664;2023-07-09T13:10:52;28.90;60.10
18321;DHT22;54904;54.350;18.664;2023-07-09T13:13:21;28.90;60.20
18321;DHT22;54904;54.350;18.664;2023-07-09T13:15:51;28.90;60.20
18321;DHT22;54904;54.350;18.664;2023-07-09T13:18:23;28.80;60.30
18321;DHT22;54904;54.350;18.664;2023-07-09T13:20:52;28.70;60.60
18321;DHT22;54904;54.350;18.664;2023-07-09T13:23:25;28.70;60.50
18321;DHT22;54904;54.350;18.664;2023-07-09T13:25:52;28.60;60.60
18321;DHT22;54904;54.350;18.664;2023-07-09T13:28:25;28.50;60.80
18321;DHT22;54904;54.350;18.664;2023-07-09T13:30:55;28.40;61.10
18321;DHT22;54904;54.350;18.664;2023-07-09T13:33:23;28.30;61.20
18321;DHT22;54904;54.350;18.664;2023-07-09T13:35:50;28.30;61.40
18321;DHT22;54904;54.350;18.664;2023-07-09T13:38:22;28.30;61.60
18321;DHT22;54904;54.350;18.664;2023-07-09T13:40:51;28.30;61.70
18321;DHT22;54904;54.350;18.664;2023-07-09T13:43:26;28.20;61.90
18321;DHT22;54904;54.350;18.664;2023-07-09T13:45:54;28.20;62.20
18321;DHT22;54904;54.350;18.664;2023-07-09T13:48:22;28.20;62.10
18321;DHT22;54904;54.350;18.664;2023-07-09T13:50:51;28.10;62.10
18321;DHT22;54904;54.350;18.664;2023-07-09T13:53:23;28.10;62.90
18321;DHT22;54904;54.350;18.664;2023-07-09T13:55:52;28.10;62.10
18321;DHT22;54904;54.350;18.664;2023-07-09T13:58:21;28.00;62.10
18321;DHT22;54904;54.350;18.664;2023-07-09T14:00:50;28.00;62.20
18321;DHT22;54904;54.350;18.664;2023-07-09T14:03:19;28.00;62.50
18321;DHT22;54904;54.350;18.664;2023-07-09T14:05:47;28.00;62.70
18321;DHT22;54904;54.350;18.664;2023-07-09T14:08:15;28.00;63.00
18321;DHT22;54904;54.350;18.664;2023-07-09T14:10:44;28.00;63.30
18321;DHT22;54904;54.350;18.664;2023-07-09T14:13:14;27.90;63.40
18321;DHT22;54904;54.350;18.664;2023-07-09T14:15:41;27.90;63.60
18321;DHT22;54904;54.350;18.664;2023-07-09T14:18:11;27.90;64.00
18321;DHT22;54904;54.350;18.664;2023-07-09T14:20:39;27.80;64.30
18321;DHT22;54904;54.350;18.664;2023-07-09T14:23:09;27.80;64.50
18321;DHT22;54904;54.350;18.664;2023-07-09T14:25:37;27.80;64.50
18321;DHT22;54904;54.350;18.664;2023-07-09T14:28:10;27.80;64.50
18321;DHT22;54904;54.350;18.664;2023-07-09T14:30:37;27.80;64.70
18321;DHT22;54904;54.350;18.664;2023-07-09T14:33:11;27.80;64.70
18321;DHT22;54904;54.350;18.664;2023-07-09T14:35:38;27.80;64.60
18321;DHT22;54904;54.350;18.664;2023-07-09T14:38:16;27.80;64.40
18321;DHT22;54904;54.350;18.664;2023-07-09T14:40:44;27.70;64.20
18321;DHT22;54904;54.350;18.664;2023-07-09T14:43:13;27.70;64.20
18321;DHT22;54904;54.350;18.664;2023-07-09T14:45:40;27.70;64.10
18321;DHT22;54904;54.350;18.664;2023-07-09T14:48:11;27.70;64.10
18321;DHT22;54904;54.350;18.664;2023-07-09T14:50:39;27.70;64.20
18321;DHT22;54904;54.350;18.664;2023-07-09T14:53:13;27.80;64.40
18321;DHT22;54904;54.350;18.664;2023-07-09T14:55:41;27.70;64.60
18321;DHT22;54904;54.350;18.664;2023-07-09T14:58:15;27.70;65.00
18321;DHT22;54904;54.350;18.664;2023-07-09T15:00:43;27.70;65.50
18321;DHT22;54904;54.350;18.664;2023-07-09T15:03:18;27.70;66.40
18321;DHT22;54904;54.350;18.664;2023-07-09T15:05:46;27.70;67.20
18321;DHT22;54904;54.350;18.664;2023-07-09T15:08:14;27.70;67.90
18321;DHT22;54904;54.350;18.664;2023-07-09T15:10:41;27.70;68.50
18321;DHT22;54904;54.350;18.664;2023-07-09T15:13:17;27.60;69.00
18321;DHT22;54904;54.350;18.664;2023-07-09T15:15:45;27.60;69.90
18321;DHT22;54904;54.350;18.664;2023-07-09T15:18:14;27.50;70.30
18321;DHT22;54904;54.350;18.664;2023-07-09T15:20:45;27.40;70.80
18321;DHT22;54904;54.350;18.664;2023-07-09T15:23:14;27.40;71.30
18321;DHT22;54904;54.350;18.664;2023-07-09T15:25:41;27.30;71.50
18321;DHT22;54904;54.350;18.664;2023-07-09T15:28:10;27.30;71.80
18321;DHT22;54904;54.350;18.664;2023-07-09T15:30:38;27.30;72.10
18321;DHT22;54904;54.350;18.664;2023-07-09T15:33:12;27.20;72.50